sensor_id;sensor_type;location;lat;lon;timestamp;pressure;altitude;pressure_sealevel;temperature;humidity
5238;BME280;2639;49.700;7.962;2023-07-22T05:12:42;98690.78;;;15.15;94.25
5238;BME280;2639;49.700;7.962;2023-07-22T05:13:45;98686.69;;;15.19;94.18
5238;BME280;2639;49.700;7.962;2023-07-22T05:14:48;98684.38;;;15.23;93.84
5238;BME280;2639;49.700;7.962;2023-07-22T05:15:51;98688.91;;;15.27;93.61
5238;BME280;2639;49.700;7.962;2023-07-22T05:16:53;98691.66;;;15.30;93.93
5238;BME280;2639;49.700;7.962;2023-07-22T05:17:56;98691.81;;;15.33;93.59
5238;BME280;2639;49.700;7.962;2023-07-22T05:18:58;98690.19;;;15.35;92.84
5238;BME280;2639;49.700;7.962;2023-07-22T05:19:59;98693.75;;;15.38;92.96
5238;BME280;2639;49.700;7.962;2023-07-22T05:21:02;98689.56;;;15.40;92.01
5238;BME280;2639;49.700;7.962;2023-07-22T05:22:04;98681.00;;;15.41;92.54
5238;BME280;2639;49.700;7.962;2023-07-22T05:23:07;98697.50;;;15.43;92.16
5238;BME280;2639;49.700;7.962;2023-07-22T05:24:09;98688.22;;;15.46;91.75
5238;BME280;2639;49.700;7.962;2023-07-22T05:25:11;98692.56;;;15.47;91.94
5238;BME280;2639;49.700;7.962;2023-07-22T05:26:13;98691.06;;;15.51;91.24
5238;BME280;2639;49.700;7.962;2023-07-22T05:27:17;98696.38;;;15.54;90.29
5238;BME280;2639;49.700;7.962;2023-07-22T05:28:20;98688.63;;;15.54;89.96
5238;BME280;2639;49.700;7.962;2023-07-22T05:29:25;98693.00;;;15.55;89.06
5238;BME280;2639;49.700;7.962;2023-07-22T05:30:27;98695.66;;;15.56;89.22
5238;BME280;2639;49.700;7.962;2023-07-22T05:31:37;98696.53;;;15.57;89.15
5238;BME280;2639;49.700;7.962;2023-07-22T05:32:38;98691.47;;;15.58;89.39
5238;BME280;2639;49.700;7.962;2023-07-22T05:33:40;98695.75;;;15.58;88.74
5238;BME280;2639;49.700;7.962;2023-07-22T05:34:43;98690.66;;;15.60;88.76
5238;BME280;2639;49.700;7.962;2023-07-22T05:35:45;98694.03;;;15.58;89.28
5238;BME280;2639;49.700;7.962;2023-07-22T05:36:50;98689.75;;;15.59;88.99
5238;BME280;2639;49.700;7.962;2023-07-22T05:37:51;98695.91;;;15.61;88.27
5238;BME280;2639;49.700;7.962;2023-07-22T05:38:54;98694.19;;;15.62;87.54
5238;BME280;2639;49.700;7.962;2023-07-22T05:39:56;98690.91;;;15.64;87.73
5238;BME280;2639;49.700;7.962;2023-07-22T05:40:59;98692.69;;;15.65;87.33
5238;BME280;2639;49.700;7.962;2023-07-22T05:42:01;98689.38;;;15.68;86.86
5238;BME280;2639;49.700;7.962;2023-07-22T05:43:03;98699.03;;;15.70;86.51
5238;BME280;2639;49.700;7.962;2023-07-22T05:44:07;98688.84;;;15.73;87.22
5238;BME280;2639;49.700;7.962;2023-07-22T05:45:10;98695.94;;;15.77;86.83
5238;BME280;2639;49.700;7.962;2023-07-22T05:46:15;98696.13;;;15.81;87.09
5238;BME280;2639;49.700;7.962;2023-07-22T05:47:18;98696.28;;;15.84;86.93
5238;BME280;2639;49.700;7.962;2023-07-22T05:48:20;98697.25;;;15.86;87.08
5238;BME280;2639;49.700;7.962;2023-07-22T05:49:23;98701.81;;;15.90;86.99
5238;BME280;2639;49.700;7.962;2023-07-22T05:50:25;98701.06;;;15.92;87.64
5238;BME280;2639;49.700;7.962;2023-07-22T06:03:07;98703.41;;;16.20;88.72
5238;BME280;2639;49.700;7.962;2023-07-22T06:04:10;98701.78;;;16.23;88.86
5238;BME280;2639;49.700;7.962;2023-07-22T06:05:12;98701.09;;;16.27;88.56
5238;BME280;2639;49.700;7.962;2023-07-22T06:06:15;98700.41;;;16.29;88.42
5238;BME280;2639;49.700;7.962;2023-07-22T06:07:16;98698.69;;;16.30;88.15
5238;BME280;2639;49.700;7.962;2023-07-22T06:08:19;98699.66;;;16.32;88.38
5238;BME280;2639;49.700;7.962;2023-07-22T06:09:21;98697.22;;;16.35;88.95
5238;BME280;2639;49.700;7.962;2023-07-22T06:10:24;98699.91;;;16.36;89.44
5238;BME280;2639;49.700;7.962;2023-07-22T06:11:26;98704.34;;;16.39;89.17
5238;BME280;2639;49.700;7.962;2023-07-22T06:12:30;98705.22;;;16.39;89.31
5238;BME280;2639;49.700;7.962;2023-07-22T06:13:31;98700.78;;;16.37;87.36
5238;BME280;2639;49.700;7.962;2023-07-22T06:14:34;98701.56;;;16.36;86.60
5238;BME280;2639;49.700;7.962;2023-07-22T06:15:36;98700.88;;;16.38;87.28
5238;BME280;2639;49.700;7.962;2023-07-22T06:16:39;98701.00;;;16.41;87.29
5238;BME280;2639;49.700;7.962;2023-07-22T06:17:41;98704.63;;;16.45;87.22
5238;BME280;2639;49.700;7.962;2023-07-22T06:18:45;98697.81;;;16.47;87.06
5238;BME280;2639;49.700;7.962;2023-07-22T06:19:47;98703.19;;;16.50;87.10
5238;BME280;2639;49.700;7.962;2023-07-22T06:20:50;98708.50;;;16.53;86.56
5238;BME280;2639;49.700;7.962;2023-07-22T06:21:52;98704.34;;;16.57;86.50
5238;BME280;2639;49.700;7.962;2023-07-22T06:22:55;98713.09;;;16.59;85.27
5238;BME280;2639;49.700;7.962;2023-07-22T06:23:57;98714.16;;;16.62;85.82
5238;BME280;2639;49.700;7.962;2023-07-22T06:24:59;98708.75;;;16.58;85.62
5238;BME280;2639;49.700;7.962;2023-07-22T06:26:02;98709.72;;;16.60;85.83
5238;BME280;2639;49.700;7.962;2023-07-22T06:27:04;98709.13;;;16.66;85.60
5238;BME280;2639;49.700;7.962;2023-07-22T06:28:08;98705.00;;;16.69;86.03
5238;BME280;2639;49.700;7.962;2023-07-22T06:29:10;98703.44;;;16.73;86.42
5238;BME280;2639;49.700;7.962;2023-07-22T06:30:13;98708.13;;;16.80;86.00
5238;BME280;2639;49.700;7.962;2023-07-22T06:31:14;98718.50;;;16.80;85.41
5238;BME280;2639;49.700;7.962;2023-07-22T06:32:19;98716.63;;;16.77;85.50
5238;BME280;2639;49.700;7.962;2023-07-22T06:33:20;98718.69;;;16.83;85.81
5238;BME280;2639;49.700;7.962;2023-07-22T06:34:25;98710.38;;;16.90;84.79
5238;BME280;2639;49.700;7.962;2023-07-22T06:35:26;98712.31;;;16.94;85.35
5238;BME280;2639;49.700;7.962;2023-07-22T06:36:29;98714.81;;;16.93;84.05
5238;BME280;2639;49.700;7.962;2023-07-22T06:37:31;98720.16;;;16.96;84.70
5238;BME280;2639;49.700;7.962;2023-07-22T06:38:34;98716.03;;;16.99;84.23
5238;BME280;2639;49.700;7.962;2023-07-22T06:39:36;98725.00;;;17.06;84.11
5238;BME280;2639;49.700;7.962;2023-07-22T06:40:39;98714.84;;;17.11;83.78
5238;BME280;2639;49.700;7.962;2023-07-22T06:41:40;98719.28;;;17.13;83.07
5238;BME280;2639;49.700;7.962;2023-07-22T06:42:43;98721.22;;;17.17;83.28
5238;BME280;2639;49.700;7.962;2023-07-22T06:43:45;98721.44;;;17.22;84.21
5238;BME280;2639;49.700;7.962;2023-07-22T06:44:48;98720.75;;;17.26;83.45
5238;BME280;2639;49.700;7.962;2023-07-22T06:45:50;98717.50;;;17.30;83.29
5238;BME280;2639;49.700;7.962;2023-07-22T06:46:52;98718.53;;;17.34;83.58
5238;BME280;2639;49.700;7.962;2023-07-22T06:47:54;98714.44;;;17.39;82.89
5238;BME280;2639;49.700;7.962;2023-07-22T06:48:57;98716.28;;;17.41;82.67
5238;BME280;2639;49.700;7.962;2023-07-22T06:50:00;98717.31;;;17.45;82.51
5238;BME280;2639;49.700;7.962;2023-07-22T06:51:04;98722.59;;;17.46;81.87
5238;BME280;2639;49.700;7.962;2023-07-22T06:52:06;98725.47;;;17.53;82.13
5238;BME280;2639;49.700;7.962;2023-07-22T06:53:09;98715.34;;;17.59;81.46
5238;BME280;2639;49.700;7.962;2023-07-22T06:54:12;98711.28;;;17.64;81.65
5238;BME280;2639;49.700;7.962;2023-07-22T06:55:15;98712.38;;;17.69;81.55
5238;BME280;2639;49.700;7.962;2023-07-22T06:56:17;98723.13;;;17.77;82.02
5238;BME280;2639;49.700;7.962;2023-07-22T06:57:20;98720.09;;;17.85;81.45
5238;BME280;2639;49.700;7.962;2023-07-22T06:58:23;98716.94;;;17.93;81.57
5238;BME280;2639;49.700;7.962;2023-07-22T06:59:26;98715.56;;;18.01;80.89
5238;BME280;2639;49.700;7.962;2023-07-22T07:00:27;98720.25;;;18.08;81.14
5238;BME280;2639;49.700;7.962;2023-07-22T07:01:30;98709.97;;;18.11;81.39
5238;BME280;2639;49.700;7.962;2023-07-22T07:02:32;98714.63;;;18.18;80.65
5238;BME280;2639;49.700;7.962;2023-07-22T07:03:35;98716.38;;;18.19;80.12
5238;BME280;2639;49.700;7.962;2023-07-22T07:04:37;98715.66;;;18.22;80.74
5238;BME280;2639;49.700;7.962;2023-07-22T07:05:41;98718.59;;;18.29;81.07
5238;BME280;2639;49.700;7.962;2023-07-22T07:06:43;98717.06;;;18.35;79.99
5238;BME280;2639;49.700;7.962;2023-07-22T07:07:48;98717.47;;;18.44;80.22
5238;BME280;2639;49.700;7.962;2023-07-22T07:08:50;98714.31;;;18.51;79.98
5238;BME280;2639;49.700;7.962;2023-07-22T07:09:53;98717.97;;;18.56;79.56
5238;BME280;2639;49.700;7.962;2023-07-22T07:10:55;98713.03;;;18.62;78.63
5238;BME280;2639;49.700;7.962;2023-07-22T07:11:58;98715.09;;;18.69;78.90
5238;BME280;2639;49.700;7.962;2023-07-22T07:13:00;98715.34;;;18.76;77.60
5238;BME280;2639;49.700;7.962;2023-07-22T07:14:02;98706.16;;;18.84;77.11
5238;BME280;2639;49.700;7.962;2023-07-22T07:15:05;98706.53;;;18.93;76.20
5238;BME280;2639;49.700;7.962;2023-07-22T07:19:04;98707.38;;;19.13;70.38
5238;BME280;2639;49.700;7.962;2023-07-22T07:20:10;98707.72;;;19.22;69.95
5238;BME280;2639;49.700;7.962;2023-07-22T07:21:13;98706.31;;;19.30;70.03
5238;BME280;2639;49.700;7.962;2023-07-22T07:22:15;98708.13;;;19.33;69.47
5238;BME280;2639;49.700;7.962;2023-07-22T07:23:34;98694.31;;;19.34;68.58
5238;BME280;2639;49.700;7.962;2023-07-22T07:24:37;98705.09;;;19.43;68.73
5238;BME280;2639;49.700;7.962;2023-07-22T07:25:39;98710.47;;;19.48;67.64
5238;BME280;2639;49.700;7.962;2023-07-22T07:26:42;98706.50;;;19.58;67.39
5238;BME280;2639;49.700;7.962;2023-07-22T07:27:44;98708.59;;;19.68;67.49
5238;BME280;2639;49.700;7.962;2023-07-22T07:28:47;98703.84;;;19.79;67.50
5238;BME280;2639;49.700;7.962;2023-07-22T07:29:49;98700.63;;;19.86;66.52
5238;BME280;2639;49.700;7.962;2023-07-22T07:30:55;98706.25;;;19.96;66.93
5238;BME280;2639;49.700;7.962;2023-07-22T07:31:57;98709.13;;;20.04;66.92
5238;BME280;2639;49.700;7.962;2023-07-22T07:33:00;98711.13;;;20.11;65.75
5238;BME280;2639;49.700;7.962;2023-07-22T07:34:01;98701.81;;;20.18;65.41
5238;BME280;2639;49.700;7.962;2023-07-22T07:35:05;98699.47;;;20.26;64.46
5238;BME280;2639;49.700;7.962;2023-07-22T07:36:08;98705.00;;;20.35;64.40
5238;BME280;2639;49.700;7.962;2023-07-22T07:37:12;98700.13;;;20.44;64.35
5238;BME280;2639;49.700;7.962;2023-07-22T07:38:13;98707.22;;;20.48;64.04
5238;BME280;2639;49.700;7.962;2023-07-22T07:39:16;98699.69;;;20.56;64.55
5238;BME280;2639;49.700;7.962;2023-07-22T07:40:18;98701.66;;;20.63;63.56
5238;BME280;2639;49.700;7.962;2023-07-22T07:41:21;98698.47;;;20.70;62.16
5238;BME280;2639;49.700;7.962;2023-07-22T07:42:23;98690.00;;;20.77;61.95
5238;BME280;2639;49.700;7.962;2023-07-22T07:43:26;98699.06;;;20.89;61.16
5238;BME280;2639;49.700;7.962;2023-07-22T07:44:28;98698.84;;;20.83;59.10
5238;BME280;2639;49.700;7.962;2023-07-22T07:45:31;98699.09;;;20.90;59.65
5238;BME280;2639;49.700;7.962;2023-07-22T07:46:33;98698.44;;;20.96;59.38
5238;BME280;2639;49.700;7.962;2023-07-22T07:47:35;98692.66;;;21.06;60.36
5238;BME280;2639;49.700;7.962;2023-07-22T07:48:37;98691.00;;;21.08;59.13
5238;BME280;2639;49.700;7.962;2023-07-22T07:49:40;98697.97;;;21.09;57.74
5238;BME280;2639;49.700;7.962;2023-07-22T07:50:42;98701.44;;;21.08;58.17
5238;BME280;2639;49.700;7.962;2023-07-22T07:51:45;98703.00;;;21.03;58.00
5238;BME280;2639;49.700;7.962;2023-07-22T07:52:48;98706.34;;;20.99;58.27
5238;BME280;2639;49.700;7.962;2023-07-22T07:53:51;98707.28;;;21.01;58.07
5238;BME280;2639;49.700;7.962;2023-07-22T07:54:53;98698.72;;;21.05;57.93
5238;BME280;2639;49.700;7.962;2023-07-22T07:55:56;98696.22;;;21.08;58.16
5238;BME280;2639;49.700;7.962;2023-07-22T07:56:58;98699.94;;;21.16;57.63
5238;BME280;2639;49.700;7.962;2023-07-22T07:58:00;98698.41;;;21.23;57.71
5238;BME280;2639;49.700;7.962;2023-07-22T07:59:02;98693.34;;;21.28;58.15
5238;BME280;2639;49.700;7.962;2023-07-22T08:00:07;98697.91;;;21.35;57.22
5238;BME280;2639;49.700;7.962;2023-07-22T08:01:10;98697.16;;;21.39;57.76
5238;BME280;2639;49.700;7.962;2023-07-22T08:02:13;98702.56;;;21.43;58.18
5238;BME280;2639;49.700;7.962;2023-07-22T08:03:15;98698.28;;;21.46;58.16
5238;BME280;2639;49.700;7.962;2023-07-22T08:04:17;98701.03;;;21.50;58.52
5238;BME280;2639;49.700;7.962;2023-07-22T08:05:19;98701.03;;;21.50;58.15
5238;BME280;2639;49.700;7.962;2023-07-22T08:06:25;98701.13;;;21.53;57.31
5238;BME280;2639;49.700;7.962;2023-07-22T08:07:27;98698.50;;;21.53;56.94
5238;BME280;2639;49.700;7.962;2023-07-22T08:08:31;98702.03;;;21.54;57.55
5238;BME280;2639;49.700;7.962;2023-07-22T08:09:33;98700.31;;;21.56;56.85
5238;BME280;2639;49.700;7.962;2023-07-22T08:10:35;98697.84;;;21.60;57.81
5238;BME280;2639;49.700;7.962;2023-07-22T08:11:38;98696.09;;;21.59;57.25
5238;BME280;2639;49.700;7.962;2023-07-22T08:12:41;98694.31;;;21.58;56.74
5238;BME280;2639;49.700;7.962;2023-07-22T08:13:44;98697.09;;;21.64;57.13
5238;BME280;2639;49.700;7.962;2023-07-22T08:14:47;98697.16;;;21.66;56.74
5238;BME280;2639;49.700;7.962;2023-07-22T08:15:48;98699.06;;;21.72;56.89
5238;BME280;2639;49.700;7.962;2023-07-22T08:16:51;98689.53;;;21.74;56.01
5238;BME280;2639;49.700;7.962;2023-07-22T08:17:53;98696.78;;;21.82;55.95
5238;BME280;2639;49.700;7.962;2023-07-22T08:18:58;98691.69;;;21.87;56.16
5238;BME280;2639;49.700;7.962;2023-07-22T08:20:00;98694.50;;;21.95;56.96
5238;BME280;2639;49.700;7.962;2023-07-22T08:21:03;98695.56;;;22.01;57.74
5238;BME280;2639;49.700;7.962;2023-07-22T08:22:05;98697.44;;;22.05;56.22
5238;BME280;2639;49.700;7.962;2023-07-22T08:23:08;98693.97;;;22.06;55.44
5238;BME280;2639;49.700;7.962;2023-07-22T08:24:11;98703.63;;;22.09;55.13
5238;BME280;2639;49.700;7.962;2023-07-22T08:25:14;98700.97;;;22.08;55.57
5238;BME280;2639;49.700;7.962;2023-07-22T08:26:16;98698.44;;;22.11;54.80
5238;BME280;2639;49.700;7.962;2023-07-22T08:27:22;98697.69;;;22.15;54.86
5238;BME280;2639;49.700;7.962;2023-07-22T08:28:25;98702.03;;;22.14;54.00
5238;BME280;2639;49.700;7.962;2023-07-22T08:29:28;98703.00;;;22.18;54.36
5238;BME280;2639;49.700;7.962;2023-07-22T08:30:30;98705.78;;;22.22;55.41
5238;BME280;2639;49.700;7.962;2023-07-22T08:31:32;98701.59;;;22.29;55.75
5238;BME280;2639;49.700;7.962;2023-07-22T08:32:34;98698.22;;;22.33;55.13
5238;BME280;2639;49.700;7.962;2023-07-22T08:33:37;98700.16;;;22.40;55.34
5238;BME280;2639;49.700;7.962;2023-07-22T08:34:42;98696.78;;;22.44;54.18
5238;BME280;2639;49.700;7.962;2023-07-22T08:35:45;98698.63;;;22.48;52.74
5238;BME280;2639;49.700;7.962;2023-07-22T08:36:49;98697.78;;;22.50;52.43
5238;BME280;2639;49.700;7.962;2023-07-22T08:37:52;98700.44;;;22.51;53.07
5238;BME280;2639;49.700;7.962;2023-07-22T08:38:55;98693.63;;;22.58;52.24
5238;BME280;2639;49.700;7.962;2023-07-22T08:39:59;98699.84;;;22.61;51.02
5238;BME280;2639;49.700;7.962;2023-07-22T08:41:01;98692.13;;;22.66;52.12
5238;BME280;2639;49.700;7.962;2023-07-22T08:42:04;98700.09;;;22.71;52.80
5238;BME280;2639;49.700;7.962;2023-07-22T08:43:07;98698.22;;;22.66;52.12
5238;BME280;2639;49.700;7.962;2023-07-22T08:44:10;98691.13;;;22.61;51.74
5238;BME280;2639;49.700;7.962;2023-07-22T08:45:15;98697.19;;;22.60;51.64
5238;BME280;2639;49.700;7.962;2023-07-22T08:46:20;98703.22;;;22.57;52.01
5238;BME280;2639;49.700;7.962;2023-07-22T08:47:24;98702.34;;;22.57;52.93
5238;BME280;2639;49.700;7.962;2023-07-22T08:48:30;98708.50;;;22.59;53.56
5238;BME280;2639;49.700;7.962;2023-07-22T08:49:34;98701.41;;;22.55;52.97
5238;BME280;2639;49.700;7.962;2023-07-22T08:50:42;98704.91;;;22.55;53.07
5238;BME280;2639;49.700;7.962;2023-07-22T08:51:46;98702.34;;;22.57;53.17
5238;BME280;2639;49.700;7.962;2023-07-22T08:52:49;98695.41;;;22.59;53.21
5238;BME280;2639;49.700;7.962;2023-07-22T08:53:51;98693.81;;;22.64;53.10
5238;BME280;2639;49.700;7.962;2023-07-22T08:55:14;98693.72;;;22.61;53.16
5238;BME280;2639;49.700;7.962;2023-07-22T08:56:16;98693.81;;;22.64;53.73
5238;BME280;2639;49.700;7.962;2023-07-22T08:57:21;98693.88;;;22.67;52.77
5238;BME280;2639;49.700;7.962;2023-07-22T08:58:24;98688.50;;;22.61;51.69
5238;BME280;2639;49.700;7.962;2023-07-22T08:59:26;98690.19;;;22.59;53.12
5238;BME280;2639;49.700;7.962;2023-07-22T09:00:29;98690.25;;;22.62;52.98
5238;BME280;2639;49.700;7.962;2023-07-22T09:01:33;98689.44;;;22.63;53.04
5238;BME280;2639;49.700;7.962;2023-07-22T09:02:36;98688.50;;;22.61;54.01
5238;BME280;2639;49.700;7.962;2023-07-22T09:03:40;98691.19;;;22.64;54.62
5238;BME280;2639;49.700;7.962;2023-07-22T09:04:43;98688.72;;;22.70;54.54
5238;BME280;2639;49.700;7.962;2023-07-22T09:05:47;98679.97;;;22.69;53.67
5238;BME280;2639;49.700;7.962;2023-07-22T09:06:50;98689.69;;;22.74;53.86
5238;BME280;2639;49.700;7.962;2023-07-22T09:07:53;98683.34;;;22.64;52.06
5238;BME280;2639;49.700;7.962;2023-07-22T09:08:55;98681.56;;;22.63;52.31
5238;BME280;2639;49.700;7.962;2023-07-22T09:10:00;98685.91;;;22.62;51.92
5238;BME280;2639;49.700;7.962;2023-07-22T09:11:03;98675.34;;;22.59;51.82
5238;BME280;2639;49.700;7.962;2023-07-22T09:12:06;98691.06;;;22.59;51.66
5238;BME280;2639;49.700;7.962;2023-07-22T09:13:09;98685.03;;;22.62;52.38
5238;BME280;2639;49.700;7.962;2023-07-22T09:14:12;98677.06;;;22.57;51.59
5238;BME280;2639;49.700;7.962;2023-07-22T09:15:27;98687.59;;;22.60;51.38
5238;BME280;2639;49.700;7.962;2023-07-22T09:16:30;98685.84;;;22.59;50.80
5238;BME280;2639;49.700;7.962;2023-07-22T09:17:33;98682.44;;;22.63;51.02
5238;BME280;2639;49.700;7.962;2023-07-22T09:18:37;98680.78;;;22.67;50.94
5238;BME280;2639;49.700;7.962;2023-07-22T09:19:39;98678.25;;;22.70;50.50
5238;BME280;2639;49.700;7.962;2023-07-22T09:20:42;98674.84;;;22.74;50.31
5238;BME280;2639;49.700;7.962;2023-07-22T09:21:46;98681.19;;;22.82;51.45
5238;BME280;2639;49.700;7.962;2023-07-22T09:22:50;98677.81;;;22.88;51.04
5238;BME280;2639;49.700;7.962;2023-07-22T09:24:20;98681.63;;;22.99;50.93
5238;BME280;2639;49.700;7.962;2023-07-22T09:25:25;98671.41;;;23.10;51.37
5238;BME280;2639;49.700;7.962;2023-07-22T09:26:32;98677.69;;;23.18;50.71
5238;BME280;2639;49.700;7.962;2023-07-22T09:27:36;98678.78;;;23.26;50.40
5238;BME280;2639;49.700;7.962;2023-07-22T09:28:52;98672.81;;;23.34;50.78
5238;BME280;2639;49.700;7.962;2023-07-22T09:29:55;98669.44;;;23.38;49.77
5238;BME280;2639;49.700;7.962;2023-07-22T09:31:02;98669.44;;;23.38;48.87
5238;BME280;2639;49.700;7.962;2023-07-22T09:32:05;98669.47;;;23.41;49.11
5238;BME280;2639;49.700;7.962;2023-07-22T09:33:19;98668.59;;;23.40;48.76
5238;BME280;2639;49.700;7.962;2023-07-22T09:34:23;98667.84;;;23.46;49.58
5238;BME280;2639;49.700;7.962;2023-07-22T09:35:28;98668.84;;;23.51;48.72
5238;BME280;2639;49.700;7.962;2023-07-22T09:36:31;98673.44;;;23.61;48.65
5238;BME280;2639;49.700;7.962;2023-07-22T09:37:36;98659.78;;;23.75;49.42
5238;BME280;2639;49.700;7.962;2023-07-22T09:38:39;98669.63;;;23.86;48.45
5238;BME280;2639;49.700;7.962;2023-07-22T09:39:46;98658.34;;;23.92;47.66
5238;BME280;2639;49.700;7.962;2023-07-22T09:40:49;98661.91;;;23.94;47.68
5238;BME280;2639;49.700;7.962;2023-07-22T09:41:53;98665.41;;;23.93;47.38
5238;BME280;2639;49.700;7.962;2023-07-22T09:42:56;98662.78;;;23.93;48.36
5238;BME280;2639;49.700;7.962;2023-07-22T09:44:02;98658.44;;;23.95;48.69
5238;BME280;2639;49.700;7.962;2023-07-22T09:45:04;98667.28;;;24.02;48.34
5238;BME280;2639;49.700;7.962;2023-07-22T09:46:09;98662.88;;;23.99;48.06
5238;BME280;2639;49.700;7.962;2023-07-22T09:47:14;98658.25;;;23.87;47.58
5238;BME280;2639;49.700;7.962;2023-07-22T09:48:17;98656.53;;;23.88;48.00
5238;BME280;2639;49.700;7.962;2023-07-22T09:49:19;98656.53;;;23.88;48.70
5238;BME280;2639;49.700;7.962;2023-07-22T09:50:24;98660.16;;;23.93;49.55
5238;BME280;2639;49.700;7.962;2023-07-22T09:51:33;98655.69;;;23.89;48.09
5238;BME280;2639;49.700;7.962;2023-07-22T09:52:45;98656.47;;;23.85;47.96
5238;BME280;2639;49.700;7.962;2023-07-22T09:54:00;98652.00;;;23.81;47.68
5238;BME280;2639;49.700;7.962;2023-07-22T09:55:03;98656.28;;;23.76;48.42
5238;BME280;2639;49.700;7.962;2023-07-22T09:56:05;98650.09;;;23.73;48.34
5238;BME280;2639;49.700;7.962;2023-07-22T09:57:12;98647.41;;;23.70;48.29
5238;BME280;2639;49.700;7.962;2023-07-22T09:58:14;98649.16;;;23.71;48.59
5238;BME280;2639;49.700;7.962;2023-07-22T09:59:18;98647.47;;;23.73;48.70
5238;BME280;2639;49.700;7.962;2023-07-22T10:00:20;98650.16;;;23.75;49.01
5238;BME280;2639;49.700;7.962;2023-07-22T10:01:26;98645.72;;;23.72;48.49
5238;BME280;2639;49.700;7.962;2023-07-22T10:02:29;98650.19;;;23.77;49.46
5238;BME280;2639;49.700;7.962;2023-07-22T10:03:31;98643.88;;;23.68;48.83
5238;BME280;2639;49.700;7.962;2023-07-22T10:04:35;98651.69;;;23.65;48.22
5238;BME280;2639;49.700;7.962;2023-07-22T10:05:38;98650.84;;;23.68;49.18
5238;BME280;2639;49.700;7.962;2023-07-22T10:06:42;98655.13;;;23.63;48.39
5238;BME280;2639;49.700;7.962;2023-07-22T10:07:46;98657.66;;;23.58;49.79
5238;BME280;2639;49.700;7.962;2023-07-22T10:08:49;98651.38;;;23.51;49.04
5238;BME280;2639;49.700;7.962;2023-07-22T10:09:54;98660.19;;;23.55;49.79
5238;BME280;2639;49.700;7.962;2023-07-22T10:10:57;98650.66;;;23.59;49.49
5238;BME280;2639;49.700;7.962;2023-07-22T10:12:02;98654.22;;;23.62;49.52
5238;BME280;2639;49.700;7.962;2023-07-22T10:13:07;98655.13;;;23.64;49.55
5238;BME280;2639;49.700;7.962;2023-07-22T10:14:10;98647.34;;;23.67;49.50
5238;BME280;2639;49.700;7.962;2023-07-22T10:15:16;98651.78;;;23.70;48.06
5238;BME280;2639;49.700;7.962;2023-07-22T10:16:19;98648.28;;;23.71;48.67
5238;BME280;2639;49.700;7.962;2023-07-22T10:17:27;98656.28;;;23.76;49.29
5238;BME280;2639;49.700;7.962;2023-07-22T10:18:32;98644.84;;;23.73;49.19
5238;BME280;2639;49.700;7.962;2023-07-22T10:19:35;98658.81;;;23.72;49.51
5238;BME280;2639;49.700;7.962;2023-07-22T10:20:38;98656.09;;;23.69;48.86
5238;BME280;2639;49.700;7.962;2023-07-22T10:21:42;98649.38;;;23.81;49.42
5238;BME280;2639;49.700;7.962;2023-07-22T10:22:45;98648.66;;;23.88;49.93
5238;BME280;2639;49.700;7.962;2023-07-22T10:23:49;98642.63;;;23.92;49.53
5238;BME280;2639;49.700;7.962;2023-07-22T10:24:52;98646.13;;;23.91;48.22
5238;BME280;2639;49.700;7.962;2023-07-22T10:25:56;98641.88;;;23.99;48.65
5238;BME280;2639;49.700;7.962;2023-07-22T10:26:59;98649.00;;;24.05;48.94
5238;BME280;2639;49.700;7.962;2023-07-22T10:28:03;98653.44;;;24.07;48.45
5238;BME280;2639;49.700;7.962;2023-07-22T10:29:10;98649.03;;;24.06;47.53
5238;BME280;2639;49.700;7.962;2023-07-22T10:30:13;98643.75;;;24.05;47.36
5238;BME280;2639;49.700;7.962;2023-07-22T10:31:19;98648.09;;;24.04;48.02
5238;BME280;2639;49.700;7.962;2023-07-22T10:32:22;98641.09;;;24.03;47.14
5238;BME280;2639;49.700;7.962;2023-07-22T10:33:25;98646.34;;;24.03;48.01
5238;BME280;2639;49.700;7.962;2023-07-22T10:34:28;98646.34;;;24.03;48.08
5238;BME280;2639;49.700;7.962;2023-07-22T10:35:40;98646.22;;;23.97;49.17
5238;BME280;2639;49.700;7.962;2023-07-22T10:36:43;98646.22;;;23.97;48.58
5238;BME280;2639;49.700;7.962;2023-07-22T10:37:49;98644.41;;;23.93;48.14
5238;BME280;2639;49.700;7.962;2023-07-22T10:38:56;98649.56;;;23.90;47.96
5238;BME280;2639;49.700;7.962;2023-07-22T10:40:15;98646.66;;;23.75;47.34
5238;BME280;2639;49.700;7.962;2023-07-22T10:41:19;98641.47;;;23.78;47.97
5238;BME280;2639;49.700;7.962;2023-07-22T10:42:25;98639.72;;;23.78;48.48
5238;BME280;2639;49.700;7.962;2023-07-22T10:43:30;98640.69;;;23.83;48.55
5238;BME280;2639;49.700;7.962;2023-07-22T10:44:35;98645.97;;;23.85;47.48
5238;BME280;2639;49.700;7.962;2023-07-22T10:45:41;98651.34;;;23.91;48.18
5238;BME280;2639;49.700;7.962;2023-07-22T10:46:56;98639.22;;;23.96;48.62
5238;BME280;2639;49.700;7.962;2023-07-22T10:48:02;98642.81;;;24.01;49.55
5238;BME280;2639;49.700;7.962;2023-07-22T10:49:10;98646.41;;;24.06;49.21
5238;BME280;2639;49.700;7.962;2023-07-22T10:50:19;98645.75;;;24.18;48.39
5238;BME280;2639;49.700;7.962;2023-07-22T10:51:22;98642.44;;;24.28;48.55
5238;BME280;2639;49.700;7.962;2023-07-22T10:52:40;98637.56;;;24.47;47.34
5238;BME280;2639;49.700;7.962;2023-07-22T10:53:45;98638.66;;;24.60;47.56
5238;BME280;2639;49.700;7.962;2023-07-22T10:54:48;98640.63;;;24.73;47.01
5238;BME280;2639;49.700;7.962;2023-07-22T10:56:03;98633.84;;;24.87;46.66
5238;BME280;2639;49.700;7.962;2023-07-22T10:57:22;98635.72;;;24.93;47.12
5238;BME280;2639;49.700;7.962;2023-07-22T10:58:25;98640.19;;;25.00;46.10
5238;BME280;2639;49.700;7.962;2023-07-22T10:59:28;98640.91;;;24.91;44.97
5238;BME280;2639;49.700;7.962;2023-07-22T11:00:32;98626.72;;;24.80;45.40
5238;BME280;2639;49.700;7.962;2023-07-22T11:01:36;98635.34;;;24.71;46.35
5238;BME280;2639;49.700;7.962;2023-07-22T11:02:40;98635.25;;;24.67;47.08
5238;BME280;2639;49.700;7.962;2023-07-22T11:04:03;98636.00;;;24.58;46.01
5238;BME280;2639;49.700;7.962;2023-07-22T11:05:05;98631.53;;;24.52;47.18
5238;BME280;2639;49.700;7.962;2023-07-22T11:06:08;98627.97;;;24.50;45.97
5238;BME280;2639;49.700;7.962;2023-07-22T11:07:10;98633.34;;;24.56;46.55
5238;BME280;2639;49.700;7.962;2023-07-22T11:08:13;98629.06;;;24.60;46.34
5238;BME280;2639;49.700;7.962;2023-07-22T11:09:33;98624.94;;;24.77;46.15
5238;BME280;2639;49.700;7.962;2023-07-22T11:10:36;98622.63;;;24.97;47.09
5238;BME280;2639;49.700;7.962;2023-07-22T11:11:44;98621.94;;;25.11;46.01
5238;BME280;2639;49.700;7.962;2023-07-22T11:12:48;98613.44;;;25.27;45.82
5238;BME280;2639;49.700;7.962;2023-07-22T11:13:50;98614.56;;;25.45;46.16
5238;BME280;2639;49.700;7.962;2023-07-22T11:15:03;98615.59;;;25.56;44.65